Time;durP1;ratioP1;P1;durP2;ratioP2;P2;SDS_P1;SDS_P2;PMS_P1;PMS_P2;Temp;Humidity;BMP_temperature;BMP_pressure;BME280_temperature;BME280_humidity;BME280_pressure;Samples;Min_cycle;Max_cycle;Signal;HPM_P1;HPM_P2
2023/12/02 00:02:13;;;;;;;28.58;18.63;;;;;;;1.47;59.94;100981.53;5091966;28;20034;-67
2023/12/02 00:04:39;;;;;;;26.10;17.50;;;;;;;1.42;61.17;100982.13;5072903;28;20364;-67
2023/12/02 00:07:04;;;;;;;28.05;17.48;;;;;;;1.42;60.75;100982.13;5074141;28;20044;-67
2023/12/02 00:09:30;;;;;;;27.58;17.60;;;;;;;1.42;61.24;100964.84;5085769;28;20046;-67
2023/12/02 00:11:55;;;;;;;26.85;17.90;;;;;;;1.43;60.57;100974.75;5088084;28;20038;-67
2023/12/02 00:14:20;;;;;;;27.90;17.50;;;;;;;1.43;60.72;100967.38;5075682;28;20491;-68
2023/12/02 00:16:45;;;;;;;28.15;18.65;;;;;;;1.43;61.02;100972.03;5092315;28;20038;-68
2023/12/02 00:19:11;;;;;;;29.95;18.63;;;;;;;1.40;61.03;100958.72;5091865;28;20036;-68
2023/12/02 00:21:36;;;;;;;28.42;17.73;;;;;;;1.40;61.16;100955.97;5093697;28;20020;-68
2023/12/02 00:24:02;;;;;;;29.67;19.27;;;;;;;1.39;60.96;100971.53;5088123;28;20118;-68
2023/12/02 00:26:27;;;;;;;26.98;17.80;;;;;;;1.39;60.46;100976.16;5079634;28;20028;-68
2023/12/02 00:28:52;;;;;;;28.95;18.67;;;;;;;1.38;60.99;100974.47;5084882;28;20089;-67
2023/12/02 00:31:17;;;;;;;27.80;18.52;;;;;;;1.40;60.40;100972.38;5089267;28;20049;-68
2023/12/02 00:33:43;;;;;;;28.17;18.33;;;;;;;1.35;60.29;100972.13;5091352;28;20471;-68
2023/12/02 00:36:08;;;;;;;26.60;18.13;;;;;;;1.35;60.72;100972.97;5081201;28;20028;-68
2023/12/02 00:38:37;;;;;;;26.70;17.98;;;;;;;1.36;60.33;100979.28;5083655;28;20040;-68
2023/12/02 00:41:02;;;;;;;24.58;18.08;;;;;;;1.35;60.54;100983.06;5093347;28;20384;-67
2023/12/02 00:43:27;;;;;;;28.67;18.80;;;;;;;1.36;60.53;100979.28;5086389;28;20033;-67
2023/12/02 00:45:53;;;;;;;26.73;17.95;;;;;;;1.34;59.86;100989.56;5081255;28;20042;-67
2023/12/02 00:48:18;;;;;;;28.52;18.15;;;;;;;1.31;59.93;100987.22;5084098;28;20083;-67
2023/12/02 00:50:43;;;;;;;28.10;17.70;;;;;;;1.32;60.57;100975.22;5073089;28;20029;-67
2023/12/02 00:53:08;;;;;;;27.55;17.77;;;;;;;1.27;59.87;100964.88;5072192;28;20537;-68
2023/12/02 00:55:34;;;;;;;24.27;16.88;;;;;;;1.31;60.26;100984.47;5072292;28;20064;-67
2023/12/02 00:57:59;;;;;;;26.45;17.88;;;;;;;1.26;60.04;100976.84;5072999;28;20036;-67
2023/12/02 01:00:24;;;;;;;27.08;17.73;;;;;;;1.27;60.72;100980.44;5072336;28;20400;-67
2023/12/02 01:02:50;;;;;;;26.70;17.42;;;;;;;1.25;60.46;100983.34;5080233;28;20067;-67
2023/12/02 01:05:15;;;;;;;29.58;18.27;;;;;;;1.25;60.11;100977.88;5088103;28;20054;-68
2023/12/02 01:07:40;;;;;;;27.15;17.40;;;;;;;1.26;60.60;100978.72;5090889;28;20036;-67
2023/12/02 01:10:06;;;;;;;26.10;17.38;;;;;;;1.25;59.82;100974.28;5077807;28;20033;-68
2023/12/02 01:12:32;;;;;;;26.65;17.10;;;;;;;1.26;60.42;100981.44;5072455;28;20032;-68
2023/12/02 01:14:57;;;;;;;26.42;18.02;;;;;;;1.27;59.68;100972.22;5084523;28;20072;-67
2023/12/02 01:17:22;;;;;;;25.55;17.60;;;;;;;1.30;60.23;100974.56;5092039;28;20376;-68
2023/12/02 01:19:47;;;;;;;28.52;18.20;;;;;;;1.30;59.67;100969.97;5074269;28;20072;-67
2023/12/02 01:22:13;;;;;;;25.70;17.40;;;;;;;1.28;60.08;100974.75;5084125;28;20480;-68
2023/12/02 01:24:38;;;;;;;27.00;17.95;;;;;;;1.28;60.07;100960.25;5083201;28;20029;-67
2023/12/02 01:27:06;;;;;;;27.40;17.90;;;;;;;1.32;60.12;100958.81;5072448;28;20035;-67
2023/12/02 01:29:32;;;;;;;26.55;18.23;;;;;;;1.32;60.66;100958.81;5078474;28;20042;-67
2023/12/02 01:31:57;;;;;;;26.92;18.17;;;;;;;1.30;60.45;100963.63;5090822;28;20044;-67
2023/12/02 01:34:22;;;;;;;27.25;18.65;;;;;;;1.29;60.14;100975.59;5078787;28;20028;-67
2023/12/02 01:36:47;;;;;;;27.90;19.13;;;;;;;1.30;60.06;100971.81;5071196;28;20025;-67
2023/12/02 01:39:14;;;;;;;27.17;18.33;;;;;;;1.32;60.72;100976.06;5084234;28;20055;-67
2023/12/02 01:41:39;;;;;;;27.27;17.98;;;;;;;1.29;60.78;100979.19;5071106;28;20024;-67
2023/12/02 01:44:11;;;;;;;27.80;18.88;;;;;;;1.31;60.75;100979.84;5080499;28;20085;-67
2023/12/02 01:46:36;;;;;;;26.77;18.35;;;;;;;1.31;60.43;100989.94;5085017;28;20040;-68
2023/12/02 01:49:02;;;;;;;27.98;18.30;;;;;;;1.32;60.71;101002.56;5085580;28;20039;-67
2023/12/02 01:51:28;;;;;;;29.08;18.67;;;;;;;1.33;61.25;101007.00;5072410;28;20024;-68
2023/12/02 01:53:54;;;;;;;27.92;19.23;;;;;;;1.28;60.96;101004.00;5071564;28;20471;-68
2023/12/02 01:56:22;;;;;;;28.40;18.30;;;;;;;1.33;60.74;101004.25;5070495;28;20028;-68
2023/12/02 01:58:47;;;;;;;29.02;18.85;;;;;;;1.30;60.19;100999.16;5071826;28;20361;-68
2023/12/02 02:01:13;;;;;;;28.75;18.08;;;;;;;1.26;60.74;100998.72;5080835;28;20482;-68
2023/12/02 02:03:39;;;;;;;27.67;18.35;;;;;;;1.25;60.91;100997.00;5091020;28;20020;-68
2023/12/02 02:06:08;;;;;;;28.55;18.98;;;;;;;1.27;60.82;101002.31;5091544;28;20036;-68
2023/12/02 02:08:33;;;;;;;27.75;17.98;;;;;;;1.29;60.70;101000.22;5082160;28;20047;-68
2023/12/02 02:10:59;;;;;;;31.40;19.08;;;;;;;1.29;61.28;101002.94;5082952;28;20028;-68
2023/12/02 02:13:25;;;;;;;33.50;20.10;;;;;;;1.29;61.03;100998.31;5091684;28;20032;-68
2023/12/02 02:15:50;;;;;;;31.55;19.80;;;;;;;1.28;60.95;100991.16;5081748;28;20025;-68
2023/12/02 02:18:15;;;;;;;30.98;19.27;;;;;;;1.28;61.64;101004.84;5075149;28;20094;-68
2023/12/02 02:20:41;;;;;;;28.63;19.50;;;;;;;1.29;61.55;100998.31;5087741;28;20059;-68
2023/12/02 02:23:06;;;;;;;30.13;19.27;;;;;;;1.29;60.78;100992.00;5080807;28;20089;-68
2023/12/02 02:25:31;;;;;;;29.70;18.77;;;;;;;1.26;61.68;100998.72;5090749;28;20038;-68
2023/12/02 02:27:56;;;;;;;27.92;18.13;;;;;;;1.27;61.43;101002.31;5089748;28;20479;-68
2023/12/02 02:30:26;;;;;;;29.70;20.08;;;;;;;1.23;61.55;100997.19;5071213;28;20049;-68
2023/12/02 02:32:51;;;;;;;29.13;19.42;;;;;;;1.28;61.26;100995.78;5083491;28;20077;-68
2023/12/02 02:35:17;;;;;;;28.92;18.65;;;;;;;1.27;61.17;100996.84;5091458;28;20431;-68
2023/12/02 02:37:43;;;;;;;27.58;18.80;;;;;;;1.27;61.59;101002.31;5088175;28;20024;-68
2023/12/02 02:40:08;;;;;;;28.33;18.67;;;;;;;1.27;61.74;100999.56;5075121;28;20028;-68
2023/12/02 02:42:34;;;;;;;28.27;18.40;;;;;;;1.28;61.56;101009.47;5090352;28;20110;-68
2023/12/02 02:44:59;;;;;;;30.77;19.15;;;;;;;1.25;61.86;101007.94;5088624;28;20472;-68
2023/12/02 02:47:24;;;;;;;28.85;18.88;;;;;;;1.26;61.83;101006.06;5078690;28;20042;-68
2023/12/02 02:49:49;;;;;;;29.85;19.80;;;;;;;1.21;61.37;101017.56;5089323;28;20054;-68
2023/12/02 02:52:15;;;;;;;30.92;20.75;;;;;;;1.21;61.53;101018.41;5077425;28;20063;-68
2023/12/02 02:54:40;;;;;;;30.63;19.42;;;;;;;1.21;62.14;101006.63;5075078;28;20143;-68
2023/12/02 02:57:05;;;;;;;29.10;19.08;;;;;;;1.22;62.31;101020.13;5070298;28;20040;-67
2023/12/02 02:59:34;;;;;;;29.65;19.55;;;;;;;1.21;62.21;101021.13;5085289;28;20113;-67
2023/12/02 03:01:59;;;;;;;28.63;18.92;;;;;;;1.20;62.02;101027.66;5086910;28;20123;-68
2023/12/02 03:04:24;;;;;;;32.40;19.65;;;;;;;1.22;61.62;101020.13;5073523;28;20372;-68
2023/12/02 03:06:50;;;;;;;29.55;19.60;;;;;;;1.21;61.93;101028.50;5085481;28;20028;-68
2023/12/02 03:09:15;;;;;;;31.15;18.75;;;;;;;1.23;61.62;101040.94;5070908;28;20040;-68
2023/12/02 03:11:40;;;;;;;30.42;19.63;;;;;;;1.24;61.96;101028.13;5083173;28;20356;-68
2023/12/02 03:14:06;;;;;;;27.02;18.05;;;;;;;1.24;61.52;101030.84;5079509;28;20458;-68
2023/12/02 03:16:31;;;;;;;29.83;19.20;;;;;;;1.24;61.22;101033.59;5072031;28;20033;-68
2023/12/02 03:18:57;;;;;;;26.35;18.15;;;;;;;1.21;61.67;101029.34;5075029;28;20036;-68
2023/12/02 03:21:22;;;;;;;28.40;18.17;;;;;;;1.21;61.33;101020.28;5082303;28;20036;-68
2023/12/02 03:23:49;;;;;;;28.02;18.70;;;;;;;1.23;61.94;101029.16;5086549;28;20081;-68
2023/12/02 03:26:15;;;;;;;29.08;18.35;;;;;;;1.21;61.80;101023.88;5081251;28;20147;-68
2023/12/02 03:28:40;;;;;;;29.98;19.15;;;;;;;1.23;61.22;101031.91;5071318;28;20032;-68
2023/12/02 03:31:06;;;;;;;27.70;18.40;;;;;;;1.22;61.96;101020.13;5069978;28;20117;-67
2023/12/02 03:33:31;;;;;;;25.98;18.02;;;;;;;1.20;61.54;101027.66;5076473;28;20085;-68
2023/12/02 03:35:56;;;;;;;29.88;19.48;;;;;;;1.18;61.57;101029.75;5078765;28;20484;-68
2023/12/02 03:38:22;;;;;;;28.92;19.05;;;;;;;1.20;61.70;101027.66;5076174;28;20031;-68
2023/12/02 03:40:47;;;;;;;29.58;19.08;;;;;;;1.19;61.41;101031.44;5089497;28;20047;-68
2023/12/02 03:43:12;;;;;;;28.92;18.55;;;;;;;1.18;61.64;101023.44;5082055;28;20028;-68
2023/12/02 03:45:37;;;;;;;32.75;20.08;;;;;;;1.20;62.28;101027.66;5075585;28;20054;-68
2023/12/02 03:48:03;;;;;;;31.00;19.38;;;;;;;1.18;62.02;101029.75;5073957;28;20027;-68
2023/12/02 03:50:29;;;;;;;30.05;19.05;;;;;;;1.17;61.06;101033.47;5089994;28;20044;-68
2023/12/02 03:52:54;;;;;;;29.58;19.08;;;;;;;1.16;61.49;101031.78;5081082;28;20498;-68
2023/12/02 03:55:19;;;;;;;31.80;20.52;;;;;;;1.12;61.81;101016.81;5089330;28;20050;-68
2023/12/02 03:57:48;;;;;;;28.45;19.52;;;;;;;1.17;61.90;101035.38;5093136;28;20070;-68
2023/12/02 04:00:13;;;;;;;32.15;19.75;;;;;;;1.16;61.58;101042.72;5093427;28;20142;-68
2023/12/02 04:02:39;;;;;;;29.67;19.27;;;;;;;1.17;62.12;101058.09;5084871;28;20928;-68
2023/12/02 04:05:08;;;;;;;29.98;19.63;;;;;;;1.14;61.96;101038.47;5091155;28;20036;-68
2023/12/02 04:07:37;;;;;;;31.63;19.67;;;;;;;1.15;62.07;101042.94;5093619;28;20448;-68
2023/12/02 04:10:05;;;;;;;31.05;20.13;;;;;;;1.12;62.00;101068.75;5091096;28;20062;-68
2023/12/02 04:12:31;;;;;;;30.05;19.33;;;;;;;1.11;61.47;101039.72;5092315;28;20414;-68
2023/12/02 04:14:56;;;;;;;26.98;18.85;;;;;;;1.18;61.77;101061.69;5077015;28;20039;-68
2023/12/02 04:17:22;;;;;;;29.02;19.85;;;;;;;1.14;61.93;101053.03;5079538;28;20078;-68
2023/12/02 04:19:47;;;;;;;30.95;19.73;;;;;;;1.16;62.27;101064.59;5089235;28;20047;-68
2023/12/02 04:22:13;;;;;;;33.55;20.42;;;;;;;1.19;61.53;101063.41;5085333;28;20032;-69
2023/12/02 04:24:39;;;;;;;30.80;20.27;;;;;;;1.22;61.63;101071.22;5084264;28;20028;-68
2023/12/02 04:27:05;;;;;;;28.38;19.05;;;;;;;1.18;61.81;101073.47;5093419;28;20040;-68
2023/12/02 04:29:31;;;;;;;31.48;19.92;;;;;;;1.18;61.95;101070.75;5082950;28;20427;-69
2023/12/02 04:31:57;;;;;;;30.73;20.15;;;;;;;1.19;61.49;101074.31;5074112;28;20424;-67
2023/12/02 04:34:22;;;;;;;31.58;20.15;;;;;;;1.18;62.01;101065.28;5084795;28;20039;-67
2023/12/02 04:36:47;;;;;;;32.40;20.88;;;;;;;1.17;61.40;101070.91;5086160;28;20166;-68
2023/12/02 04:39:13;;;;;;;30.73;20.25;;;;;;;1.22;61.88;101079.44;5079845;28;20388;-68
2023/12/02 04:41:38;;;;;;;31.63;20.33;;;;;;;1.14;62.30;101074.88;5072848;28;20131;-68
2023/12/02 04:44:05;;;;;;;31.30;20.77;;;;;;;1.18;61.95;101068.00;5076361;28;20096;-67
2023/12/02 04:46:30;;;;;;;29.88;19.88;;;;;;;1.17;62.09;101069.03;5092822;28;20056;-68
2023/12/02 04:48:55;;;;;;;30.77;20.25;;;;;;;1.16;61.84;101071.97;5089022;28;20100;-67
2023/12/02 04:51:21;;;;;;;30.88;20.38;;;;;;;1.17;61.95;101081.84;5078208;28;20040;-67
2023/12/02 04:53:46;;;;;;;28.95;19.52;;;;;;;1.19;61.91;101069.72;5089440;28;20021;-67
2023/12/02 04:56:11;;;;;;;32.35;20.35;;;;;;;1.16;61.75;101070.06;5091356;28;20024;-67
2023/12/02 04:58:37;;;;;;;29.38;19.67;;;;;;;1.16;61.56;101080.16;5091969;28;20085;-67
2023/12/02 05:01:04;;;;;;;31.50;20.65;;;;;;;1.15;61.88;101075.75;5092421;28;20024;-67
2023/12/02 05:03:29;;;;;;;30.95;20.50;;;;;;;1.16;62.24;101089.22;5090947;28;20028;-67
2023/12/02 05:05:54;;;;;;;31.05;19.75;;;;;;;1.08;62.44;101085.72;5075863;28;20028;-67
2023/12/02 05:08:20;;;;;;;28.73;19.48;;;;;;;1.10;62.60;101092.69;5072552;28;20029;-67
2023/12/02 05:10:45;;;;;;;30.15;19.85;;;;;;;1.12;62.38;101082.41;5072394;28;20653;-67
2023/12/02 05:13:10;;;;;;;29.08;19.10;;;;;;;1.14;62.36;101094.03;5076609;28;20135;-67
2023/12/02 05:15:35;;;;;;;30.88;19.70;;;;;;;1.16;61.75;101085.63;5079680;28;20500;-67
2023/12/02 05:18:01;;;;;;;31.02;19.92;;;;;;;1.20;61.93;101095.16;5082722;28;20080;-67
2023/12/02 05:20:26;;;;;;;29.75;19.80;;;;;;;1.15;62.18;101109.38;5090074;28;20067;-67
2023/12/02 05:22:51;;;;;;;31.42;20.50;;;;;;;1.12;62.44;101123.41;5092455;28;20411;-68
2023/12/02 05:25:16;;;;;;;27.33;18.73;;;;;;;1.14;62.12;101115.91;5092009;28;20026;-67
2023/12/02 05:27:42;;;;;;;29.75;20.30;;;;;;;1.14;62.25;101110.44;5090071;28;20035;-67
2023/12/02 05:30:09;;;;;;;27.58;18.55;;;;;;;1.15;61.88;101116.75;5074421;28;20129;-67
2023/12/02 05:32:34;;;;;;;30.13;19.90;;;;;;;1.11;61.92;101115.41;5083095;28;20028;-67
2023/12/02 05:34:59;;;;;;;30.77;19.90;;;;;;;1.11;62.19;101116.25;5086567;28;20032;-67
2023/12/02 05:37:25;;;;;;;29.88;19.60;;;;;;;1.07;61.75;101117.66;5074861;28;20047;-67
2023/12/02 05:39:50;;;;;;;30.70;20.52;;;;;;;1.08;62.42;101121.25;5088657;28;20067;-67
2023/12/02 05:42:15;;;;;;;29.63;19.73;;;;;;;1.06;62.19;101112.38;5083119;28;20032;-68
2023/12/02 05:44:41;;;;;;;30.23;20.38;;;;;;;1.06;62.26;101117.84;5083554;28;20053;-68
2023/12/02 05:47:06;;;;;;;28.60;19.35;;;;;;;1.07;62.75;101103.16;5087845;28;20824;-67
2023/12/02 05:49:32;;;;;;;29.20;20.02;;;;;;;1.05;62.21;101097.84;5089189;28;20494;-67
2023/12/02 05:51:58;;;;;;;30.23;20.00;;;;;;;1.00;62.19;101103.03;5074709;28;20040;-67
2023/12/02 05:54:23;;;;;;;31.13;20.42;;;;;;;0.99;63.09;101098.59;5071852;28;20028;-69
2023/12/02 05:56:48;;;;;;;33.03;20.23;;;;;;;0.98;63.35;101111.44;5072000;28;20028;-69
2023/12/02 05:59:14;;;;;;;32.15;19.75;;;;;;;1.03;63.28;101130.00;5083312;28;20040;-67
2023/12/02 06:01:39;;;;;;;30.80;20.20;;;;;;;1.00;62.60;101135.00;5071935;28;20022;-66
2023/12/02 06:04:04;;;;;;;32.97;20.15;;;;;;;1.03;63.20;101143.66;5083897;28;20123;-66
2023/12/02 06:06:30;;;;;;;30.90;20.55;;;;;;;1.06;62.78;101146.03;5081145;28;20048;-64
2023/12/02 06:08:55;;;;;;;31.33;20.65;;;;;;;1.08;63.25;101140.38;5070069;28;20039;-68
2023/12/02 06:11:20;;;;;;;29.08;19.55;;;;;;;1.08;62.84;101141.22;5082233;28;20024;-67
2023/12/02 06:13:46;;;;;;;29.58;19.88;;;;;;;1.12;63.55;101136.25;5074210;28;20043;-67
2023/12/02 06:16:11;;;;;;;31.90;20.33;;;;;;;1.09;62.78;101145.66;5087657;28;20032;-67
2023/12/02 06:18:36;;;;;;;29.08;19.40;;;;;;;1.07;63.09;101138.69;5091139;28;20043;-67
2023/12/02 06:21:02;;;;;;;30.58;20.40;;;;;;;1.08;63.13;101138.50;5076771;28;20024;-70
2023/12/02 06:23:27;;;;;;;30.48;19.77;;;;;;;1.10;63.23;101133.72;5075989;28;20037;-67
2023/12/02 06:25:52;;;;;;;30.10;20.45;;;;;;;1.09;62.77;101131.97;5071940;28;20376;-68
2023/12/02 06:28:18;;;;;;;29.05;19.58;;;;;;;1.08;63.50;101152.16;5091355;28;20111;-68
2023/12/02 06:30:44;;;;;;;30.60;19.38;;;;;;;1.12;63.70;101150.75;5080654;28;20466;-70
2023/12/02 06:33:09;;;;;;;30.05;19.92;;;;;;;1.10;62.74;101155.56;5079338;28;20470;-69
2023/12/02 06:35:35;;;;;;;33.88;21.13;;;;;;;1.09;63.50;101156.59;5085693;28;20032;-66
2023/12/02 06:38:03;;;;;;;33.45;21.40;;;;;;;1.06;63.52;101154.25;5083092;28;20032;-67
2023/12/02 06:40:28;;;;;;;31.80;20.15;;;;;;;1.02;63.58;101146.56;5076988;28;20109;-66
2023/12/02 06:42:54;;;;;;;33.42;20.65;;;;;;;1.06;63.15;101161.56;5079088;28;20028;-67
2023/12/02 06:45:19;;;;;;;32.55;20.60;;;;;;;1.06;64.17;101156.97;5078275;28;20020;-69
2023/12/02 06:47:44;;;;;;;33.58;22.27;;;;;;;1.05;64.01;101160.72;5079195;28;20482;-68
2023/12/02 06:50:10;;;;;;;35.17;21.15;;;;;;;1.06;63.15;101165.19;5088913;28;20092;-68
2023/12/02 06:52:35;;;;;;;33.70;21.40;;;;;;;1.08;63.41;101171.31;5078011;28;20063;-68
2023/12/02 06:55:01;;;;;;;33.35;21.15;;;;;;;1.05;63.18;101166.19;5077198;28;20166;-68
2023/12/02 06:57:26;;;;;;;37.53;21.42;;;;;;;1.05;63.39;101170.81;5080433;28;20040;-67
2023/12/02 06:59:51;;;;;;;34.17;21.85;;;;;;;1.02;63.55;101177.47;5078917;28;20028;-67
2023/12/02 07:02:17;;;;;;;32.72;20.77;;;;;;;0.98;63.57;101176.16;5070588;28;20051;-67
2023/12/02 07:04:45;;;;;;;32.97;21.65;;;;;;;1.03;63.40;101175.63;5070534;28;20498;-68
2023/12/02 07:07:11;;;;;;;33.13;21.70;;;;;;;1.02;64.16;101188.41;5076118;28;20035;-68
2023/12/02 07:09:36;;;;;;;33.10;20.58;;;;;;;1.04;63.74;101196.44;5084522;28;20040;-68
2023/12/02 07:12:02;;;;;;;33.75;21.88;;;;;;;1.05;63.88;101209.09;5083166;28;20031;-68
2023/12/02 07:14:27;;;;;;;34.78;22.05;;;;;;;1.04;63.47;101204.66;5070409;28;20040;-67
2023/12/02 07:16:52;;;;;;;33.25;21.10;;;;;;;1.03;63.89;101202.97;5080096;28;20110;-68
2023/12/02 07:19:19;;;;;;;33.67;20.63;;;;;;;1.01;63.90;101207.75;5091103;28;20153;-68
2023/12/02 07:21:44;;;;;;;31.25;20.88;;;;;;;0.99;63.75;101205.22;5082791;28;20101;-68
2023/12/02 07:24:09;;;;;;;30.67;19.85;;;;;;;1.01;63.76;101219.53;5088659;28;20731;-68
2023/12/02 07:26:35;;;;;;;33.35;21.17;;;;;;;0.94;63.51;101216.69;5082566;28;20028;-67
2023/12/02 07:29:00;;;;;;;33.95;21.25;;;;;;;0.92;63.99;101215.16;5073998;28;20047;-67
2023/12/02 07:31:26;;;;;;;31.58;20.67;;;;;;;0.96;64.40;101216.50;5074631;28;20119;-68
2023/12/02 07:33:51;;;;;;;32.47;20.98;;;;;;;0.97;64.55;101223.66;5085886;28;20353;-68
2023/12/02 07:36:16;;;;;;;32.92;20.85;;;;;;;1.02;64.65;101214.91;5088301;28;20032;-68
2023/12/02 07:38:42;;;;;;;33.22;20.98;;;;;;;1.02;64.56;101206.72;5074064;28;20388;-68
2023/12/02 07:41:13;;;;;;;34.25;22.27;;;;;;;1.02;64.09;101218.47;5077100;28;20039;-67
2023/12/02 07:43:38;;;;;;;33.92;21.67;;;;;;;1.00;64.32;101209.63;5073766;28;20066;-68
2023/12/02 07:46:04;;;;;;;31.98;20.58;;;;;;;1.01;64.90;101213.22;5074157;28;20075;-67
2023/12/02 07:48:29;;;;;;;32.60;20.30;;;;;;;1.06;64.63;101213.50;5080823;28;20036;-67
2023/12/02 07:50:54;;;;;;;33.15;21.13;;;;;;;1.02;64.17;101217.63;5083853;28;20037;-67
2023/12/02 07:53:20;;;;;;;33.28;21.23;;;;;;;1.03;64.60;101216.63;5073334;28;20039;-68
2023/12/02 07:55:45;;;;;;;36.45;21.40;;;;;;;1.03;64.51;101224.84;5073322;28;20055;-67
2023/12/02 07:58:11;;;;;;;33.25;21.13;;;;;;;1.05;64.45;101228.22;5078454;28;20028;-67
2023/12/02 08:00:37;;;;;;;34.20;22.13;;;;;;;1.01;63.88;101230.47;5091610;28;20034;-67
2023/12/02 08:03:02;;;;;;;34.00;21.80;;;;;;;0.98;63.74;101244.47;5086893;28;20055;-67
2023/12/02 08:05:28;;;;;;;36.42;23.63;;;;;;;0.98;64.75;101244.47;5093963;28;20024;-67
2023/12/02 08:07:53;;;;;;;35.33;22.48;;;;;;;0.97;64.74;101251.84;5086390;28;20519;-67
2023/12/02 08:10:21;;;;;;;38.20;24.23;;;;;;;0.98;64.74;101248.09;5083213;28;20055;-67
2023/12/02 08:12:47;;;;;;;35.30;22.60;;;;;;;0.99;64.64;101248.94;5091065;28;20452;-67
2023/12/02 08:15:12;;;;;;;38.10;22.40;;;;;;;0.98;64.58;101253.56;5083994;28;20032;-67
2023/12/02 08:17:37;;;;;;;34.42;21.65;;;;;;;1.00;63.90;101253.38;5080393;28;20106;-67
2023/12/02 08:20:05;;;;;;;35.60;21.98;;;;;;;0.97;63.98;101261.91;5080153;28;20028;-67
2023/12/02 08:22:31;;;;;;;34.63;23.15;;;;;;;0.94;64.38;101268.63;5092517;28;20059;-67
2023/12/02 08:24:56;;;;;;;36.10;22.25;;;;;;;0.94;64.51;101273.22;5084013;28;20070;-67
2023/12/02 08:27:22;;;;;;;31.98;20.48;;;;;;;0.92;64.59;101273.41;5075126;28;20384;-67
2023/12/02 08:29:47;;;;;;;35.17;22.27;;;;;;;0.92;64.42;101273.41;5090244;28;20016;-67
2023/12/02 08:32:13;;;;;;;34.90;22.90;;;;;;;0.92;64.13;101281.59;5080910;28;20044;-67
2023/12/02 08:34:42;;;;;;;52.85;41.88;;;;;;;0.91;64.72;101284.53;5077592;28;20136;-63
2023/12/02 08:37:07;;;;;;;44.20;32.17;;;;;;;0.91;64.45;101279.91;5077350;28;20025;-67
2023/12/02 08:39:33;;;;;;;37.20;23.90;;;;;;;0.93;64.01;101290.66;5079083;28;20024;-67
2023/12/02 08:41:59;;;;;;;39.22;24.63;;;;;;;0.97;64.82;101290.09;5084476;28;20047;-66
2023/12/02 08:44:24;;;;;;;39.58;24.20;;;;;;;1.00;63.99;101288.91;5078664;28;20032;-66
2023/12/02 08:46:52;;;;;;;43.42;25.80;;;;;;;0.98;64.43;101300.03;5083913;28;20499;-66
2023/12/02 08:49:18;;;;;;;38.75;24.40;;;;;;;1.01;64.64;101303.41;5077069;28;20496;-66
2023/12/02 08:51:43;;;;;;;37.05;24.08;;;;;;;1.02;64.90;101308.69;5079676;28;20161;-68
2023/12/02 08:54:09;;;;;;;37.45;24.33;;;;;;;1.02;64.85;101307.84;5078743;28;20036;-69
2023/12/02 08:56:34;;;;;;;39.03;23.02;;;;;;;1.00;64.42;101309.91;5078478;28;20020;-68
2023/12/02 08:58:59;;;;;;;38.80;24.60;;;;;;;1.04;64.66;101309.38;5073273;28;20373;-69
2023/12/02 09:01:26;;;;;;;37.60;23.80;;;;;;;1.02;64.53;101305.97;5087696;28;20511;-66
2023/12/02 09:03:51;;;;;;;41.95;24.88;;;;;;;1.03;64.40;101310.41;5082848;28;20024;-66
2023/12/02 09:06:16;;;;;;;39.35;25.00;;;;;;;1.02;64.49;101305.09;5090280;28;20911;-67
2023/12/02 09:08:42;;;;;;;37.38;23.95;;;;;;;1.06;64.98;101303.72;5084885;28;20544;-67
2023/12/02 09:11:07;;;;;;;38.08;23.60;;;;;;;1.05;64.93;101310.22;5089442;28;20043;-67
2023/12/02 09:13:32;;;;;;;35.47;23.30;;;;;;;1.04;64.95;101312.09;5086612;28;20028;-67
2023/12/02 09:16:01;;;;;;;36.70;23.92;;;;;;;1.05;64.59;101319.28;5081664;28;20081;-67
2023/12/02 09:18:33;;;;;;;38.28;23.73;;;;;;;1.11;65.37;101317.72;5076172;28;20028;-67
2023/12/02 09:20:59;;;;;;;35.17;24.35;;;;;;;1.12;64.99;101316.69;5083229;28;20463;-67
2023/12/02 09:23:24;;;;;;;34.90;23.30;;;;;;;1.18;64.64;101321.44;5079348;28;20047;-67
2023/12/02 09:25:51;;;;;;;37.83;24.48;;;;;;;1.25;64.94;101322.41;5089026;28;20024;-67
2023/12/02 09:28:27;;;;;;;41.42;24.27;;;;;;;1.30;65.31;101313.66;5091252;28;20359;-67
2023/12/02 09:30:58;;;;;;;36.65;23.35;;;;;;;1.38;64.98;101321.81;5087729;28;20032;-67
2023/12/02 09:33:25;;;;;;;38.40;24.55;;;;;;;1.45;64.51;101320.91;5077332;28;20047;-67
2023/12/02 09:35:59;;;;;;;37.45;24.35;;;;;;;1.56;65.04;101329.72;5085483;28;20028;-67
2023/12/02 09:38:25;;;;;;;36.70;23.38;;;;;;;1.66;63.86;101333.91;5090215;28;20024;-67
2023/12/02 09:41:06;;;;;;;35.83;23.52;;;;;;;1.74;64.37;101329.41;5077655;28;20035;-67
2023/12/02 09:43:38;;;;;;;36.90;23.45;;;;;;;1.83;64.23;101336.53;5083704;28;20098;-67
2023/12/02 09:46:26;;;;;;;37.30;23.38;;;;;;;1.96;63.47;101345.81;5074990;28;20062;-67
2023/12/02 09:48:54;;;;;;;38.35;24.17;;;;;;;2.04;63.53;101338.53;5073890;28;20077;-67
2023/12/02 09:51:50;;;;;;;37.65;24.30;;;;;;;2.20;62.72;101346.59;5078964;28;20036;-67
2023/12/02 09:55:04;;;;;;;38.47;24.17;;;;;;;2.25;63.45;101335.97;5080166;28;20732;-66
2023/12/02 09:57:55;;;;;;;39.63;24.00;;;;;;;2.24;62.83;101342.47;5072619;28;20040;-66
2023/12/02 10:00:48;;;;;;;38.70;24.20;;;;;;;2.26;62.74;101340.41;5090125;28;20094;-67
2023/12/02 10:03:44;;;;;;;39.60;25.52;;;;;;;2.32;62.21;101334.19;5075713;28;20037;-67
2023/12/02 10:06:31;;;;;;;39.63;23.40;;;;;;;2.44;62.34;101331.81;5078867;28;20380;-67
2023/12/02 10:09:25;;;;;;;36.13;23.65;;;;;;;2.53;61.60;101332.59;5076433;28;20510;-68
2023/12/02 10:12:15;;;;;;;38.70;24.90;;;;;;;2.64;62.13;101323.91;5080301;28;20541;-67
2023/12/02 10:14:41;;;;;;;36.60;23.85;;;;;;;2.77;61.53;101326.81;5081770;28;20024;-68
2023/12/02 10:17:10;;;;;;;37.50;24.98;;;;;;;2.85;61.20;101331.34;5083505;28;20093;-68
2023/12/02 10:19:51;;;;;;;44.17;25.73;;;;;;;2.96;61.05;101328.09;5090098;28;20028;-68
2023/12/02 10:22:18;;;;;;;37.03;22.77;;;;;;;3.06;61.35;101325.91;5084332;28;20051;-68
2023/12/02 10:25:05;;;;;;;37.90;24.17;;;;;;;3.11;61.39;101337.16;5073476;28;20056;-68
2023/12/02 10:27:35;;;;;;;39.42;24.33;;;;;;;3.07;60.13;101327.63;5090042;28;20023;-68
2023/12/02 10:30:15;;;;;;;34.88;23.17;;;;;;;3.15;60.40;101335.72;5082352;28;20012;-67
2023/12/02 10:33:02;;;;;;;36.63;22.95;;;;;;;3.24;61.12;101336.47;5079055;28;20040;-68
2023/12/02 10:35:37;;;;;;;36.45;24.13;;;;;;;3.28;60.90;101334.19;5075265;28;20051;-68
2023/12/02 10:38:21;;;;;;;37.85;23.95;;;;;;;3.32;60.72;101338.25;5086714;28;20051;-68
2023/12/02 10:40:55;;;;;;;35.95;23.58;;;;;;;3.38;59.92;101334.72;5080215;28;20044;-68
2023/12/02 10:43:41;;;;;;;37.17;23.30;;;;;;;3.39;59.62;101337.28;5080059;28;20044;-68
2023/12/02 10:46:13;;;;;;;39.08;24.70;;;;;;;3.38;59.75;101334.72;5078320;28;20111;-68
2023/12/02 10:48:42;;;;;;;39.80;25.20;;;;;;;3.33;60.18;101342.69;5072576;28;20032;-68
2023/12/02 10:51:13;;;;;;;36.17;23.38;;;;;;;3.37;60.46;101339.34;5073870;28;20033;-67
2023/12/02 10:53:42;;;;;;;38.50;24.27;;;;;;;3.37;60.72;101346.72;5070059;28;20035;-67
2023/12/02 10:56:16;;;;;;;38.97;24.52;;;;;;;3.34;60.00;101344.38;5084186;28;20042;-67
2023/12/02 10:58:43;;;;;;;40.78;24.42;;;;;;;3.27;59.97;101346.22;5074671;28;20032;-68
2023/12/02 11:01:10;;;;;;;38.35;24.65;;;;;;;3.20;60.30;101343.38;5080038;28;20047;-67
2023/12/02 11:03:47;;;;;;;39.72;24.55;;;;;;;3.17;60.50;101341.00;5076354;28;20698;-67
2023/12/02 11:06:37;;;;;;;39.00;23.40;;;;;;;3.12;60.68;101336.13;5077814;28;20032;-68
2023/12/02 11:09:37;;;;;;;37.42;23.88;;;;;;;3.05;61.12;101340.66;5060754;28;20047;-67
2023/12/02 11:12:18;;;;;;;40.42;24.98;;;;;;;2.92;61.30;101340.50;5074334;28;20050;-67
2023/12/02 11:14:48;;;;;;;37.30;23.25;;;;;;;2.87;61.51;101342.94;5077464;28;20021;-67
2023/12/02 11:17:28;;;;;;;36.15;23.90;;;;;;;2.83;61.22;101348.00;5082892;28;20131;-66
2023/12/02 11:20:22;;;;;;;40.35;25.02;;;;;;;2.85;61.77;101342.31;5074494;28;20056;-68